Time;durP1;ratioP1;P1;durP2;ratioP2;P2;SDS_P1;SDS_P2;PMS_P1;PMS_P2;Temp;Humidity;BMP_temperature;BMP_pressure;BME280_temperature;BME280_humidity;BME280_pressure;Samples;Min_cycle;Max_cycle;Signal;HPM_P1;HPM_P2
2020/12/12 00:00:03;;;;;;;32.83;18.70;;;;;;;-1.42;76.17;99440.22;1733846;82;21048;-35
2020/12/12 00:02:33;;;;;;;34.55;18.23;;;;;;;-1.48;76.47;99442.66;1744363;82;21166;-36
2020/12/12 00:05:02;;;;;;;34.27;18.90;;;;;;;-1.49;76.42;99440.27;1746898;82;21158;-35
2020/12/12 00:07:31;;;;;;;30.50;18.57;;;;;;;-1.49;76.28;99433.08;1736100;82;21055;-35
2020/12/12 00:09:59;;;;;;;30.95;18.35;;;;;;;-1.52;76.48;99432.85;1738819;82;21208;-35
2020/12/12 00:12:27;;;;;;;37.65;19.90;;;;;;;-1.53;76.46;99436.05;1744018;82;21755;-35
2020/12/12 00:14:56;;;;;;;34.63;19.50;;;;;;;-1.49;76.50;99439.73;1747169;82;21131;-35
2020/12/12 00:17:25;;;;;;;37.55;18.48;;;;;;;-1.56;76.61;99432.62;1718671;83;21030;-35
2020/12/12 00:19:53;;;;;;;36.65;19.62;;;;;;;-1.54;76.62;99437.64;1719866;82;21016;-35
2020/12/12 00:22:21;;;;;;;37.75;20.23;;;;;;;-1.56;76.55;99443.79;1745705;82;21206;-35
2020/12/12 00:24:50;;;;;;;34.08;19.80;;;;;;;-1.61;76.72;99439.30;1748371;82;21135;-35
2020/12/12 00:27:21;;;;;;;36.60;20.20;;;;;;;-1.62;76.76;99440.38;1723063;82;21044;-35
2020/12/12 00:29:48;;;;;;;;;;;;;;;-1.62;76.86;99439.57;1736388;82;21167;-35
2020/12/12 00:32:16;;;;;;;35.75;19.07;;;;;;;-1.64;76.94;99437.18;1733305;82;20529;-35
2020/12/12 00:34:45;;;;;;;37.13;19.65;;;;;;;-1.72;77.17;99432.47;1735909;82;21372;-35
2020/12/12 00:37:13;;;;;;;33.10;19.07;;;;;;;-1.68;77.06;99432.70;1719215;82;21226;-35
2020/12/12 00:39:42;;;;;;;41.00;19.48;;;;;;;-1.68;77.15;99435.36;1732769;82;21162;-35
2020/12/12 00:42:10;;;;;;;38.17;20.48;;;;;;;-1.64;77.12;99441.70;1747740;82;21158;-35
2020/12/12 00:44:38;;;;;;;33.95;19.10;;;;;;;-1.63;77.10;99438.78;1744215;82;21182;-35
2020/12/12 00:47:06;;;;;;;34.13;19.62;;;;;;;-1.64;77.13;99439.84;1744385;82;21214;-35
2020/12/12 00:49:35;;;;;;;33.20;18.35;;;;;;;-1.64;77.14;99446.48;1747530;82;22225;-35
2020/12/12 00:52:04;;;;;;;32.60;18.87;;;;;;;-1.62;77.15;99443.03;1747169;82;21581;-35
2020/12/12 00:54:34;;;;;;;33.05;18.62;;;;;;;-1.64;77.33;99445.69;1739341;82;21170;-35
2020/12/12 00:57:02;;;;;;;37.33;19.82;;;;;;;-1.62;77.28;99437.72;1748504;82;21135;-35
2020/12/12 00:59:30;;;;;;;34.80;19.55;;;;;;;-1.59;77.24;99441.13;1744525;82;22255;-35
2020/12/12 01:01:59;;;;;;;36.63;18.37;;;;;;;-1.60;77.26;99429.47;1738295;82;21591;-35
2020/12/12 01:04:27;;;;;;;34.55;18.95;;;;;;;-1.59;77.18;99439.01;1747016;82;21182;-35
2020/12/12 01:06:56;;;;;;;36.63;19.17;;;;;;;-1.56;77.18;99435.81;1740419;82;21167;-35
2020/12/12 01:09:25;;;;;;;;;;;;;;;-1.56;77.17;99441.12;1748312;82;21024;-35
2020/12/12 01:11:56;;;;;;;31.82;17.52;;;;;;;-1.60;77.35;99440.90;1747651;82;21211;-35
2020/12/12 01:14:25;;;;;;;34.92;17.85;;;;;;;-1.66;77.66;99439.88;1748497;82;21166;-35
2020/12/12 01:16:53;;;;;;;34.95;18.15;;;;;;;-1.61;77.48;99439.30;1746632;82;21174;-35
2020/12/12 01:19:22;;;;;;;34.70;18.25;;;;;;;-1.61;77.60;99434.52;1748430;82;21159;-35
2020/12/12 01:21:53;;;;;;;34.80;18.30;;;;;;;-1.57;77.42;99436.87;1720452;82;21139;-35
2020/12/12 01:24:21;;;;;;;36.73;18.67;;;;;;;-1.51;77.29;99431.25;1719660;82;22368;-35
2020/12/12 01:26:50;;;;;;;35.85;17.32;;;;;;;-1.50;77.18;99434.14;1732855;82;21157;-35
2020/12/12 01:29:18;;;;;;;30.50;17.37;;;;;;;-1.44;77.12;99442.34;1725368;82;21183;-35
2020/12/12 01:31:49;;;;;;;39.33;19.05;;;;;;;-1.42;76.93;99440.22;1724127;82;21577;-35
2020/12/12 01:34:17;;;;;;;30.85;16.80;;;;;;;-1.48;77.08;99436.00;1738410;81;21119;-35
2020/12/12 01:36:49;;;;;;;32.42;17.52;;;;;;;-1.44;77.00;99431.71;1719127;82;21287;-35
2020/12/12 01:39:17;;;;;;;30.75;17.15;;;;;;;-1.35;76.87;99446.52;1742460;82;21150;-35
2020/12/12 01:41:46;;;;;;;37.73;17.23;;;;;;;-1.35;76.77;99443.33;1719237;82;21199;-35
2020/12/12 01:44:16;;;;;;;31.95;18.05;;;;;;;-1.33;76.76;99451.05;1718836;83;21131;-35
2020/12/12 01:46:44;;;;;;;;;;;;;;;-1.36;76.93;99441.77;1722736;82;21115;-35
2020/12/12 01:49:13;;;;;;;26.62;17.02;;;;;;;-1.32;76.93;99438.01;1718938;82;21285;-35
2020/12/12 01:51:43;;;;;;;28.38;17.20;;;;;;;-1.38;77.07;99427.95;1740462;82;21182;-35
2020/12/12 01:54:11;;;;;;;;;;;;;;;-1.35;76.98;99434.02;1742816;82;20988;-35
2020/12/12 01:56:39;;;;;;;32.50;18.57;;;;;;;-1.32;76.85;99434.81;1742436;82;20205;-35
2020/12/12 01:59:09;;;;;;;;;;;;;;;-1.42;77.12;99426.92;1750297;82;21115;-35
2020/12/12 02:01:39;;;;;;;29.55;17.48;;;;;;;-1.39;77.07;99423.70;1747807;82;21247;-35
2020/12/12 02:04:07;;;;;;;34.63;18.30;;;;;;;-1.47;77.31;99424.30;1747859;82;28279;-35
2020/12/12 02:06:36;;;;;;;33.25;18.73;;;;;;;-1.46;77.35;99419.25;1735443;82;21537;-35
2020/12/12 02:09:04;;;;;;;33.85;18.35;;;;;;;-1.42;77.29;99421.60;1740858;82;21918;-35
2020/12/12 02:11:32;;;;;;;33.73;19.02;;;;;;;-1.39;77.18;99417.05;1729820;82;21170;-35
2020/12/12 02:14:01;;;;;;;34.20;18.80;;;;;;;-1.38;77.11;99410.66;1746678;82;21426;-35
2020/12/12 02:16:29;;;;;;;35.13;18.73;;;;;;;-1.37;77.17;99409.59;1718679;83;20980;-35
2020/12/12 02:18:57;;;;;;;31.55;19.45;;;;;;;-1.35;77.10;99403.98;1718764;83;21404;-35
2020/12/12 02:21:26;;;;;;;29.77;18.30;;;;;;;-1.76;77.19;99343.74;1735555;82;21190;-35
2020/12/12 02:23:54;;;;;;;33.28;19.32;;;;;;;-1.33;77.11;99405.83;1718865;83;21194;-35
2020/12/12 02:26:22;;;;;;;34.90;18.45;;;;;;;-1.34;76.99;99409.02;1732874;82;23538;-35
2020/12/12 02:28:54;;;;;;;34.78;18.55;;;;;;;-1.35;77.13;99407.44;1718889;82;21493;-35
2020/12/12 02:31:26;;;;;;;33.98;18.02;;;;;;;-1.34;77.14;99400.25;1738604;82;21136;-35
2020/12/12 02:33:54;;;;;;;31.57;18.35;;;;;;;-1.32;77.03;99398.91;1717599;82;21200;-35
2020/12/12 02:36:23;;;;;;;29.90;17.73;;;;;;;-1.34;77.19;99397.06;1725237;82;21578;-35
2020/12/12 02:38:51;;;;;;;31.93;18.75;;;;;;;-1.27;77.06;99396.74;1734731;82;21444;-35
2020/12/12 02:41:19;;;;;;;36.13;18.55;;;;;;;-1.27;76.98;99397.28;1722435;82;21158;-35
2020/12/12 02:43:48;;;;;;;33.42;18.23;;;;;;;-1.27;76.90;99398.60;1722465;82;21191;-35
2020/12/12 02:46:16;;;;;;;33.25;17.87;;;;;;;-1.24;76.90;99394.05;1719761;82;21174;-35
2020/12/12 02:48:48;;;;;;;;;;;;;;;-1.23;76.82;99405.73;1734691;82;21437;-35
2020/12/12 02:51:16;;;;;;;28.23;17.50;;;;;;;-1.28;76.96;99403.66;1705593;82;21219;-35
2020/12/12 02:53:47;;;;;;;32.00;17.70;;;;;;;-1.35;77.15;99405.31;1707419;82;21175;-35
2020/12/12 02:56:16;;;;;;;28.42;17.48;;;;;;;-1.29;77.03;99403.39;1721589;82;21183;-35
2020/12/12 02:58:45;;;;;;;31.85;17.20;;;;;;;-1.31;76.76;99403.13;1734915;82;21432;-35
2020/12/12 03:01:15;;;;;;;30.40;17.30;;;;;;;-1.27;76.76;99407.91;1732126;82;21186;-35
2020/12/12 03:03:43;;;;;;;31.93;17.32;;;;;;;-1.29;76.75;99415.37;1734642;82;21179;-35
2020/12/12 03:06:12;;;;;;;27.90;17.13;;;;;;;-1.28;76.73;99407.65;1733095;82;21020;-35
2020/12/12 03:08:41;;;;;;;28.42;17.35;;;;;;;-1.24;76.58;99413.99;1712033;82;21115;-35
2020/12/12 03:11:09;;;;;;;25.48;16.52;;;;;;;-1.28;76.67;99406.32;1729236;82;21151;-35
2020/12/12 03:13:37;;;;;;;32.58;16.95;;;;;;;-1.26;76.53;99413.50;1705300;84;21379;-35
2020/12/12 03:16:06;;;;;;;28.02;16.67;;;;;;;-1.25;76.36;99420.38;1705112;84;23467;-35
2020/12/12 03:18:34;;;;;;;25.95;17.55;;;;;;;-1.24;76.46;99418.78;1715582;82;21040;-35
2020/12/12 03:21:03;;;;;;;27.40;17.02;;;;;;;-1.23;76.36;99415.58;1733825;82;21191;-35
2020/12/12 03:23:31;;;;;;;30.15;16.65;;;;;;;-1.19;76.25;99414.74;1728090;82;21518;-35
2020/12/12 03:25:59;;;;;;;30.27;18.48;;;;;;;-1.15;76.02;99418.95;1705386;82;21190;-35
2020/12/12 03:28:28;;;;;;;33.83;17.52;;;;;;;-1.24;76.13;99407.34;1726648;82;21151;-35
2020/12/12 03:30:56;;;;;;;29.12;16.27;;;;;;;-1.23;76.16;99406.27;1733615;82;21623;-35
2020/12/12 03:33:25;;;;;;;29.25;17.02;;;;;;;-1.26;76.08;99408.97;1733273;82;21025;-35
2020/12/12 03:35:53;;;;;;;28.83;16.12;;;;;;;-1.29;76.24;99408.72;1745209;81;21139;-35
2020/12/12 03:38:22;;;;;;;30.55;16.82;;;;;;;-1.25;76.36;99408.41;1726152;82;21186;-35
2020/12/12 03:40:50;;;;;;;30.62;16.60;;;;;;;-1.19;76.22;99416.61;1719262;82;21201;-35
2020/12/12 03:43:19;;;;;;;27.60;16.48;;;;;;;-1.23;76.32;99406.27;1720115;82;21154;-35
2020/12/12 03:45:48;;;;;;;30.90;18.05;;;;;;;-1.21;76.08;99407.56;1747524;82;21134;-35
2020/12/12 03:48:16;;;;;;;28.32;16.27;;;;;;;-1.19;75.91;99408.63;1747733;82;21157;-35
2020/12/12 03:50:45;;;;;;;25.35;16.30;;;;;;;-1.17;75.92;99410.48;1748658;82;21127;-35
2020/12/12 03:53:13;;;;;;;31.77;17.35;;;;;;;-1.23;75.99;99404.95;1744756;82;21202;-35
2020/12/12 03:55:41;;;;;;;30.40;17.82;;;;;;;-1.33;76.12;99401.84;1720296;82;21298;-35
2020/12/12 03:58:10;;;;;;;29.05;18.25;;;;;;;-1.30;76.09;99410.58;1726462;82;21190;-35
2020/12/12 04:00:38;;;;;;;28.62;17.02;;;;;;;-1.33;75.99;99401.31;1723392;82;21179;-35
2020/12/12 04:03:06;;;;;;;31.05;17.35;;;;;;;-1.33;76.07;99411.95;1747231;82;21191;-35
2020/12/12 04:05:35;;;;;;;33.18;17.12;;;;;;;-1.32;76.04;99407.42;1747774;82;21358;-35
2020/12/12 04:08:03;;;;;;;32.48;16.85;;;;;;;-1.34;76.03;99401.05;1730424;82;21600;-35
2020/12/12 04:10:31;;;;;;;29.85;17.17;;;;;;;-1.33;75.78;99401.31;1718795;83;21071;-35
2020/12/12 04:13:01;;;;;;;34.92;17.50;;;;;;;-1.39;75.66;99395.77;1732389;82;21443;-35
2020/12/12 04:15:30;;;;;;;30.55;17.40;;;;;;;-1.40;75.59;99399.50;1747667;82;21162;-35
2020/12/12 04:17:58;;;;;;;32.05;16.97;;;;;;;-1.41;75.79;99398.47;1746259;82;21350;-35
2020/12/12 04:20:26;;;;;;;31.05;16.27;;;;;;;-1.36;75.89;99402.41;1741687;82;21632;-35
2020/12/12 04:22:55;;;;;;;32.50;17.17;;;;;;;-1.33;75.68;99406.63;1746851;82;21127;-35
2020/12/12 04:25:23;;;;;;;30.45;17.15;;;;;;;-1.39;75.66;99394.44;1745149;82;21079;-35
2020/12/12 04:27:52;;;;;;;30.48;16.85;;;;;;;-1.39;75.64;99400.30;1733966;82;21174;-35
2020/12/12 04:30:20;;;;;;;26.42;15.98;;;;;;;-1.35;75.58;99393.34;1718818;82;21270;-35
2020/12/12 04:32:48;;;;;;;26.68;16.80;;;;;;;-1.34;75.56;99397.06;1732361;82;21582;-35
2020/12/12 04:35:17;;;;;;;32.78;18.05;;;;;;;-1.36;75.57;99394.44;1734911;82;21552;-35
2020/12/12 04:37:45;;;;;;;28.95;16.17;;;;;;;-1.40;75.63;99390.19;1715472;82;21143;-35
2020/12/12 04:40:14;;;;;;;32.73;18.12;;;;;;;-1.40;75.35;99395.52;1705246;83;21160;-35
2020/12/12 04:42:43;;;;;;;28.25;16.50;;;;;;;-1.41;75.48;99398.47;1692343;82;21374;-35
2020/12/12 04:45:11;;;;;;;30.03;16.50;;;;;;;-1.43;75.47;99392.09;1708716;82;21072;-35
2020/12/12 04:47:43;;;;;;;30.80;17.95;;;;;;;-1.47;75.48;99384.95;1734520;82;21163;-35
2020/12/12 04:50:12;;;;;;;25.65;15.48;;;;;;;-1.48;75.50;99391.34;1733716;82;21203;-35
2020/12/12 04:52:42;;;;;;;30.88;17.05;;;;;;;-1.53;75.07;99385.53;1726353;82;21179;-35
2020/12/12 04:55:11;;;;;;;26.55;16.32;;;;;;;-1.51;75.21;99383.40;1711903;82;21712;-35
2020/12/12 04:57:40;;;;;;;27.55;16.20;;;;;;;-1.49;75.23;99377.78;1707723;82;21728;-35
2020/12/12 05:00:12;;;;;;;27.07;15.72;;;;;;;-1.54;75.37;99372.52;1705404;84;21175;-35
2020/12/12 05:02:41;;;;;;;25.17;14.80;;;;;;;-1.56;75.44;99378.66;1705369;84;21181;-35
2020/12/12 05:05:10;;;;;;;25.23;15.55;;;;;;;-1.64;75.15;99382.70;1709143;82;21586;-35
2020/12/12 05:07:39;;;;;;;27.00;16.40;;;;;;;-1.72;75.50;99377.98;1721117;82;21516;-35
2020/12/12 05:10:07;;;;;;;26.07;15.88;;;;;;;-1.71;75.62;99374.80;1733344;82;21028;-35
2020/12/12 05:12:36;;;;;;;30.35;16.02;;;;;;;-1.71;75.60;99376.92;1734661;82;21165;-35
2020/12/12 05:15:04;;;;;;;27.52;15.68;;;;;;;-1.70;75.68;99380.38;1686470;82;21586;-35
2020/12/12 05:17:33;;;;;;;29.23;15.05;;;;;;;-1.79;75.57;99380.95;1732598;82;21156;-35
2020/12/12 05:20:02;;;;;;;31.27;15.40;;;;;;;-1.80;75.55;99373.28;1709980;82;21594;-35
2020/12/12 05:22:34;;;;;;;24.82;15.35;;;;;;;-1.82;75.67;99380.72;1707737;82;21033;-35
2020/12/12 05:25:01;;;;;;;27.32;15.90;;;;;;;-1.87;75.86;99376.77;1705651;82;21120;-35
2020/12/12 05:27:29;;;;;;;27.22;14.95;;;;;;;-1.85;75.68;99380.75;1718063;82;21143;-35
2020/12/12 05:29:59;;;;;;;25.52;14.63;;;;;;;-1.82;75.46;99375.41;1734936;82;26799;-35
2020/12/12 05:32:27;;;;;;;23.42;13.85;;;;;;;-1.87;75.70;99372.78;1733735;82;21312;-35
2020/12/12 05:34:57;;;;;;;;;;;;;;;-1.87;75.42;99374.91;1740010;81;21036;-35
2020/12/12 05:37:26;;;;;;;24.90;14.55;;;;;;;-1.87;75.09;99377.57;1744048;82;20145;-35
2020/12/12 05:39:56;;;;;;;25.57;13.98;;;;;;;-1.91;75.33;99383.72;1737504;82;21154;-35
2020/12/12 05:42:24;;;;;;;27.98;14.83;;;;;;;-1.87;75.41;99381.55;1693155;83;26674;-35
2020/12/12 05:44:53;;;;;;;24.55;14.03;;;;;;;-1.83;75.24;99380.45;1722082;82;21348;-35
2020/12/12 05:47:21;;;;;;;27.13;14.63;;;;;;;-1.87;75.29;99380.76;1742202;82;21040;-35
2020/12/12 05:49:50;;;;;;;26.00;14.33;;;;;;;-1.86;75.26;99391.65;1711179;82;21178;-35
2020/12/12 05:52:18;;;;;;;24.90;14.80;;;;;;;-1.85;75.11;99394.57;1728904;82;21174;-35
2020/12/12 05:54:47;;;;;;;25.95;14.87;;;;;;;-2.00;74.73;99366.78;1746927;82;21116;-35
2020/12/12 05:57:15;;;;;;;23.15;13.22;;;;;;;-1.97;74.66;99380.83;1677617;83;22145;-35
2020/12/12 05:59:44;;;;;;;22.55;13.32;;;;;;;-2.00;74.56;99381.39;1718868;83;21166;-35
2020/12/12 06:02:17;;;;;;;28.23;15.75;;;;;;;-2.06;74.52;99378.50;1740646;82;21616;-35
2020/12/12 06:04:51;;;;;;;24.80;14.60;;;;;;;-2.12;74.76;99382.25;1741457;82;21189;-35
2020/12/12 06:07:29;;;;;;;25.85;14.05;;;;;;;-2.10;74.64;99396.06;1727600;82;21103;-36
2020/12/12 06:10:01;;;;;;;22.07;12.40;;;;;;;-2.09;74.60;99397.66;1746073;82;22271;-35
2020/12/12 06:12:29;;;;;;;22.85;12.98;;;;;;;-2.07;74.31;99397.63;1748657;82;20984;-36
2020/12/12 06:14:58;;;;;;;25.15;12.82;;;;;;;-2.10;74.15;99384.11;1748707;82;21131;-35
2020/12/12 06:17:56;;;;;;;26.80;13.98;;;;;;;-2.08;74.17;99389.95;1744651;82;21119;-36
2020/12/12 06:20:25;;;;;;;25.15;14.38;;;;;;;-2.14;74.03;99387.06;1718031;83;21205;-35
2020/12/12 06:22:54;;;;;;;26.20;14.15;;;;;;;-2.23;74.00;99395.59;1710843;82;21727;-35
2020/12/12 06:25:23;;;;;;;21.90;13.20;;;;;;;-2.18;73.89;99402.77;1722819;82;21091;-36
2020/12/12 06:27:54;;;;;;;19.90;12.20;;;;;;;-2.25;73.78;99392.44;1693977;82;21047;-35
2020/12/12 06:30:23;;;;;;;24.40;13.18;;;;;;;-2.21;73.76;99400.11;1729203;82;21151;-36
2020/12/12 06:33:03;;;;;;;22.87;13.13;;;;;;;-2.31;73.71;99396.17;1739782;82;22218;-35
2020/12/12 06:35:34;;;;;;;19.70;11.57;;;;;;;-2.31;73.46;99406.00;1730408;82;25168;-36
2020/12/12 06:38:23;;;;;;;22.55;11.40;;;;;;;-2.38;73.29;99402.34;1728748;82;21087;-36
2020/12/12 06:40:53;;;;;;;26.50;15.18;;;;;;;-2.40;73.40;99397.82;1742095;82;21012;-35
2020/12/12 06:43:35;;;;;;;19.98;12.03;;;;;;;-2.47;73.57;99409.26;1728066;82;21063;-36
2020/12/12 06:46:05;;;;;;;17.27;11.48;;;;;;;-2.47;73.36;99407.93;1713351;83;21649;-36
2020/12/12 06:48:34;;;;;;;;;;;;;;;-2.46;73.48;99398.91;1724139;82;21645;-36
2020/12/12 06:51:02;;;;;;;20.00;11.38;;;;;;;-2.46;73.40;99405.55;1741517;82;20284;-35
2020/12/12 06:53:31;;;;;;;19.17;12.37;;;;;;;-2.55;73.46;99396.56;1713454;82;21171;-36
2020/12/12 06:56:16;;;;;;;19.02;12.30;;;;;;;-2.51;73.36;99410.88;1726530;82;21967;-35
2020/12/12 06:58:44;;;;;;;22.40;12.80;;;;;;;-2.65;73.02;99385.98;1726898;82;21136;-36
2020/12/12 07:01:35;;;;;;;22.70;13.22;;;;;;;-2.56;73.24;99409.56;1720654;82;21368;-35
2020/12/12 07:04:05;;;;;;;21.52;13.35;;;;;;;-2.67;73.40;99386.81;1722477;82;21052;-35
2020/12/12 07:06:34;;;;;;;22.50;13.93;;;;;;;-2.56;73.31;99404.26;1725075;82;21159;-36
2020/12/12 07:09:07;;;;;;;24.40;15.72;;;;;;;-2.58;73.18;99393.14;1722869;82;21156;-36
2020/12/12 07:11:37;;;;;;;25.48;14.78;;;;;;;-2.61;73.26;99392.34;1715235;82;21166;-36
2020/12/12 07:14:05;;;;;;;23.40;15.20;;;;;;;-2.62;73.18;99385.47;1713274;83;21265;-35
2020/12/12 07:16:33;;;;;;;24.55;16.17;;;;;;;-2.63;73.08;99393.16;1714061;82;21425;-35
2020/12/12 07:19:02;;;;;;;25.25;15.70;;;;;;;-2.65;73.20;99385.46;1717447;80;21241;-36
2020/12/12 07:21:31;;;;;;;24.80;16.05;;;;;;;-2.65;73.20;99385.46;1687697;82;21198;-35
2020/12/12 07:23:59;;;;;;;28.00;16.45;;;;;;;-2.59;73.22;99390.22;1688024;82;21518;-35
2020/12/12 07:26:27;;;;;;;26.95;17.25;;;;;;;-2.55;73.33;99392.58;1721763;82;21199;-36
2020/12/12 07:28:55;;;;;;;23.50;14.93;;;;;;;-2.53;73.12;99389.14;1721366;82;21123;-36
2020/12/12 07:31:24;;;;;;;23.55;15.85;;;;;;;-2.49;73.03;99389.38;1716833;82;21028;-36
2020/12/12 07:33:52;;;;;;;26.30;15.43;;;;;;;-2.50;72.83;99388.58;1723126;82;21251;-35
2020/12/12 07:36:23;;;;;;;26.68;16.35;;;;;;;-2.49;73.20;99384.86;1724125;82;21190;-35
2020/12/12 07:38:52;;;;;;;26.23;17.40;;;;;;;-2.44;73.35;99395.45;1736202;82;21381;-36
2020/12/12 07:41:20;;;;;;;25.52;16.48;;;;;;;-2.40;73.33;99395.70;1739815;82;21154;-35
2020/12/12 07:43:57;;;;;;;24.00;15.85;;;;;;;-2.33;73.47;99396.20;1744043;82;21143;-35
2020/12/12 07:46:40;;;;;;;26.23;17.32;;;;;;;-2.29;73.38;99387.42;1735256;82;21001;-35
2020/12/12 07:49:10;;;;;;;26.17;16.67;;;;;;;-2.27;73.03;99386.59;1733938;82;21019;-36
2020/12/12 07:51:38;;;;;;;28.05;14.95;;;;;;;-2.28;72.87;99389.02;1727656;82;22456;-35
2020/12/12 07:54:18;;;;;;;27.20;16.42;;;;;;;-2.37;72.83;99385.32;1733353;80;21131;-35
2020/12/12 07:56:51;;;;;;;25.75;15.25;;;;;;;-2.34;72.78;99388.77;1720848;82;21024;-35
2020/12/12 07:59:21;;;;;;;27.35;16.12;;;;;;;-2.30;72.50;99390.34;1744869;82;21574;-35
2020/12/12 08:01:52;;;;;;;28.60;16.48;;;;;;;-2.38;72.78;99386.41;1741842;82;21206;-35
2020/12/12 08:04:22;;;;;;;29.77;16.40;;;;;;;-2.33;72.86;99393.02;1728739;82;22060;-35
2020/12/12 08:06:51;;;;;;;25.82;15.65;;;;;;;-2.26;72.88;99398.02;1730906;82;21590;-35
2020/12/12 08:09:21;;;;;;;26.95;15.72;;;;;;;-2.27;73.02;99399.07;1723144;82;21198;-35
2020/12/12 08:11:57;;;;;;;27.07;15.03;;;;;;;-2.26;72.65;99390.84;1740521;82;21169;-35
2020/12/12 08:14:27;;;;;;;29.18;15.23;;;;;;;-2.24;72.39;99386.06;1740370;82;21150;-36
2020/12/12 08:16:58;;;;;;;22.13;13.58;;;;;;;-2.27;72.77;99382.61;1741163;82;21261;-36
2020/12/12 08:19:28;;;;;;;23.50;14.65;;;;;;;-2.26;72.79;99385.53;1725867;82;21186;-35
2020/12/12 08:22:16;;;;;;;19.17;13.20;;;;;;;-2.18;72.77;99388.16;1727731;82;21447;-35
2020/12/12 08:24:46;;;;;;;25.35;15.23;;;;;;;-2.12;72.84;99382.25;1722461;82;21178;-35
2020/12/12 08:27:26;;;;;;;19.77;12.45;;;;;;;-2.05;72.70;99380.89;1718801;83;21134;-36
2020/12/12 08:29:59;;;;;;;20.80;12.68;;;;;;;-2.04;72.37;99375.05;1721227;80;21376;-35
2020/12/12 08:32:34;;;;;;;24.00;13.53;;;;;;;-2.01;72.20;99379.80;1736773;80;21190;-36
2020/12/12 08:35:25;;;;;;;19.50;12.82;;;;;;;-1.99;72.18;99381.66;1725511;82;21183;-35
2020/12/12 08:38:06;;;;;;;21.70;12.98;;;;;;;-2.05;72.08;99380.09;1726674;82;21240;-35
2020/12/12 08:40:49;;;;;;;26.70;12.05;;;;;;;-2.07;72.36;99370.27;1719793;82;21555;-35
2020/12/12 08:43:20;;;;;;;23.00;13.32;;;;;;;-2.05;72.40;99374.78;1738056;82;21417;-35
2020/12/12 08:45:57;;;;;;;22.93;13.95;;;;;;;-2.00;72.41;99379.53;1724549;82;21119;-35
2020/12/12 08:51:31;;;;;;;25.23;14.18;;;;;;;-1.82;72.31;99370.09;1796164;78;23328;-35
2020/12/12 08:54:00;;;;;;;;;;;;;;;-1.87;72.17;99376.77;1775369;80;21558;-35
2020/12/12 08:56:31;;;;;;;22.35;12.70;;;;;;;-1.90;72.33;99368.83;1772362;80;21797;-35
2020/12/12 08:59:04;;;;;;;22.93;14.23;;;;;;;-1.96;72.61;99361.17;1780951;80;21051;-34
2020/12/12 09:01:42;;;;;;;22.75;13.40;;;;;;;-1.93;72.69;99359.27;1771805;80;20996;-35
2020/12/12 09:04:20;;;;;;;23.20;12.33;;;;;;;-1.86;72.44;99353.13;1773539;80;21035;-35
2020/12/12 09:06:50;;;;;;;20.35;12.20;;;;;;;-1.80;72.22;99351.48;1696225;81;20978;-35
2020/12/12 09:09:29;;;;;;;23.60;13.45;;;;;;;-1.82;72.15;99352.82;1726851;81;21403;-35
2020/12/12 09:12:10;;;;;;;26.15;14.28;;;;;;;-1.79;72.09;99356.23;1737677;82;21039;-35
2020/12/12 09:14:44;;;;;;;24.37;14.45;;;;;;;-1.76;72.11;99339.76;1723565;82;21600;-35
2020/12/12 09:17:15;;;;;;;24.10;14.20;;;;;;;-1.78;72.19;99339.23;1741326;81;21198;-35
2020/12/12 09:19:46;;;;;;;24.70;15.88;;;;;;;-1.77;72.39;99339.49;1709312;81;21210;-35
2020/12/12 09:22:15;;;;;;;23.80;14.00;;;;;;;-1.75;72.38;99329.39;1747604;81;21433;-34
2020/12/12 09:24:45;;;;;;;26.10;14.83;;;;;;;-1.74;72.26;99324.31;1707413;82;21057;-37
2020/12/12 09:27:14;;;;;;;23.40;15.25;;;;;;;-1.70;72.50;99318.72;1721882;82;21166;-34
2020/12/12 09:29:42;;;;;;;20.77;13.35;;;;;;;-1.74;72.24;99312.35;1730756;82;21174;-35
2020/12/12 09:32:11;;;;;;;26.10;16.02;;;;;;;-1.74;72.30;99307.03;1731811;81;21168;-34
2020/12/12 09:34:40;;;;;;;30.17;17.12;;;;;;;-1.79;72.26;99307.08;1711124;83;23546;-34
2020/12/12 09:37:11;;;;;;;24.57;16.23;;;;;;;-1.76;72.65;99297.23;1711366;81;21044;-35
2020/12/12 09:39:40;;;;;;;25.30;16.40;;;;;;;-1.69;72.70;99298.25;1711366;81;21064;-35
2020/12/12 09:42:11;;;;;;;29.48;17.07;;;;;;;-1.69;72.62;99301.67;1711885;81;21690;-35
2020/12/12 09:44:42;;;;;;;28.35;17.30;;;;;;;-1.66;72.63;99297.15;1727824;82;21212;-35
2020/12/12 09:47:11;;;;;;;29.87;17.40;;;;;;;-1.68;72.44;99295.30;1723241;81;21387;-35
2020/12/12 09:49:41;;;;;;;28.80;16.40;;;;;;;-1.64;72.51;99293.66;1718717;83;21142;-35
2020/12/12 09:52:10;;;;;;;24.95;16.65;;;;;;;-1.61;72.54;99287.80;1729603;82;21179;-35
2020/12/12 09:54:39;;;;;;;29.98;17.95;;;;;;;-1.62;72.56;99288.86;1711968;82;21562;-35
2020/12/12 09:57:08;;;;;;;29.07;17.25;;;;;;;-1.61;72.45;99279.03;1722529;82;21594;-35
2020/12/12 09:59:38;;;;;;;26.27;16.77;;;;;;;-1.63;72.96;99275.84;1725324;82;21060;-34
2020/12/12 10:02:07;;;;;;;25.62;16.75;;;;;;;-1.58;72.89;99283.23;1727881;82;21013;-35
2020/12/12 10:04:35;;;;;;;28.60;17.60;;;;;;;-1.59;72.86;99275.00;1704839;83;21458;-35
2020/12/12 10:07:06;;;;;;;29.10;17.95;;;;;;;-1.59;72.39;99268.89;1703861;83;21175;-35
2020/12/12 10:09:38;;;;;;;26.17;16.02;;;;;;;-1.63;72.57;99267.34;1698527;83;21202;-35
2020/12/12 10:12:06;;;;;;;29.72;17.30;;;;;;;-1.61;72.35;99277.16;1704136;82;21400;-35
2020/12/12 10:14:39;;;;;;;27.67;18.20;;;;;;;-1.59;72.25;99280.31;1712923;82;21212;-37
2020/12/12 10:17:09;;;;;;;26.45;17.50;;;;;;;-1.62;72.26;99275.57;1701377;82;21415;-35
2020/12/12 10:19:39;;;;;;;27.25;16.55;;;;;;;-1.67;71.94;99268.98;1702059;83;21174;-35
2020/12/12 10:22:09;;;;;;;;;;;;;;;-1.69;72.42;99268.45;1731164;82;21162;-35
2020/12/12 10:24:37;;;;;;;29.83;17.63;;;;;;;-1.78;72.66;99260.84;1715967;82;21283;-35
2020/12/12 10:27:05;;;;;;;25.12;16.10;;;;;;;-1.78;72.66;99260.84;1730441;82;21435;-35
2020/12/12 10:29:34;;;;;;;28.90;17.02;;;;;;;-1.80;73.12;99259.02;1712886;83;21194;-35
2020/12/12 10:32:02;;;;;;;29.75;18.73;;;;;;;-1.77;72.87;99254.45;1720746;81;21617;-37
2020/12/12 10:34:31;;;;;;;28.35;18.20;;;;;;;-1.81;72.92;99250.78;1724446;82;21601;-37
2020/12/12 10:36:59;;;;;;;31.52;17.87;;;;;;;-1.78;73.03;99247.55;1731390;82;21151;-37
2020/12/12 10:42:08;;;;;;;27.58;17.50;;;;;;;-1.74;72.97;99240.59;1815692;78;23664;-37
2020/12/12 10:44:36;;;;;;;29.15;17.45;;;;;;;-1.76;73.11;99230.80;1792392;79;20992;-37
2020/12/12 10:47:05;;;;;;;27.55;16.20;;;;;;;-1.72;73.00;99232.36;1742966;82;22420;-37
2020/12/12 10:49:35;;;;;;;28.67;17.75;;;;;;;-1.77;72.94;99230.02;1738364;81;21661;-38
2020/12/12 10:52:03;;;;;;;35.73;19.00;;;;;;;-1.71;73.16;99236.60;1759491;80;21047;-37
2020/12/12 10:54:32;;;;;;;33.35;17.77;;;;;;;-1.66;73.21;99237.34;1761566;80;20985;-37
2020/12/12 10:57:00;;;;;;;33.25;17.35;;;;;;;-1.84;73.12;99208.84;1764459;80;21173;-37
2020/12/12 10:59:28;;;;;;;36.35;20.17;;;;;;;-1.63;72.71;99234.65;1734317;82;21397;-37
2020/12/12 11:01:59;;;;;;;29.27;16.35;;;;;;;-1.58;72.67;99247.35;1741087;81;21004;-37
2020/12/12 11:04:28;;;;;;;32.63;15.98;;;;;;;-1.62;72.35;99250.86;1726373;82;21063;-37
2020/12/12 11:06:59;;;;;;;26.15;16.00;;;;;;;-1.57;72.16;99257.45;1749180;82;21126;-37
2020/12/12 11:09:27;;;;;;;25.52;15.35;;;;;;;-1.55;71.96;99253.42;1762601;80;21100;-37
2020/12/12 11:11:56;;;;;;;24.43;14.40;;;;;;;-1.57;72.11;99258.24;1774491;80;21280;-37
2020/12/12 11:14:27;;;;;;;23.27;14.85;;;;;;;-1.55;71.99;99247.34;1748010;81;20953;-37
2020/12/12 11:16:56;;;;;;;24.85;14.80;;;;;;;-1.52;71.84;99235.59;1743479;80;21142;-37
2020/12/12 11:19:24;;;;;;;26.85;14.58;;;;;;;-1.52;72.19;99232.94;1757483;80;21174;-37
2020/12/12 11:21:54;;;;;;;27.62;15.25;;;;;;;-1.52;72.38;99224.96;1749987;80;22388;-37
2020/12/12 11:24:23;;;;;;;;;;;;;;;-1.48;72.30;99225.98;1768892;80;21508;-37
2020/12/12 11:26:52;;;;;;;26.17;14.68;;;;;;;-1.47;72.05;99228.89;1760004;80;20543;-37
2020/12/12 11:29:22;;;;;;;24.02;15.40;;;;;;;-1.56;72.81;99235.11;1734284;82;21182;-37
2020/12/12 11:31:52;;;;;;;22.27;14.30;;;;;;;-1.54;73.18;99228.42;1758222;80;21158;-37
2020/12/12 11:34:33;;;;;;;27.37;15.13;;;;;;;-1.48;72.82;99225.98;1761510;80;21602;-37
2020/12/12 11:45:03;;;;;;;33.75;16.93;;;;;;;-1.43;73.24;99233.89;1726975;82;21170;-37